createdAt,value
2017-05-25T00:01:14.220Z,16.60
2017-05-25T00:03:55.706Z,16.08
2017-05-25T00:06:36.331Z,13.92
2017-05-25T00:09:17.002Z,11.23
2017-05-25T00:11:58.965Z,16.90
2017-05-25T00:14:39.701Z,13.58
2017-05-25T00:17:20.033Z,19.43
2017-05-25T00:20:00.893Z,12.67
2017-05-25T00:22:43.431Z,12.20
2017-05-25T00:25:25.324Z,12.40
2017-05-25T00:28:07.415Z,13.10
2017-05-25T00:30:49.828Z,16.58
2017-05-25T00:33:31.228Z,22.75
2017-05-25T00:36:12.422Z,15.52
2017-05-25T00:38:53.696Z,15.97
2017-05-25T00:41:34.877Z,11.65
2017-05-25T00:44:15.829Z,11.62
2017-05-25T00:46:55.403Z,12.47
2017-05-25T00:49:36.450Z,12.15
2017-05-25T00:52:17.307Z,13.70
2017-05-25T00:54:59.754Z,12.12
2017-05-25T00:57:41.107Z,10.65
2017-05-25T01:00:22.701Z,17.63
2017-05-25T01:03:03.810Z,12.85
2017-05-25T01:05:44.991Z,14.23
2017-05-25T01:08:25.743Z,15.23
2017-05-25T01:11:07.230Z,16.80
2017-05-25T01:13:46.550Z,11.08
2017-05-25T01:16:27.967Z,8.63
2017-05-25T01:19:08.755Z,17.83
2017-05-25T01:21:49.711Z,9.63
2017-05-25T01:24:32.196Z,13.17
2017-05-25T01:27:13.314Z,17.52
2017-05-25T01:29:56.893Z,14.05
2017-05-25T01:32:38.284Z,14.03
2017-05-25T01:35:18.253Z,16.02
2017-05-25T01:37:59.395Z,11.52
2017-05-25T01:40:39.910Z,9.50
2017-05-25T01:43:22.710Z,12.82
2017-05-25T01:46:05.652Z,16.47
2017-05-25T01:48:49.031Z,14.05
2017-05-25T01:51:31.560Z,11.22
2017-05-25T01:54:12.087Z,15.20
2017-05-25T01:56:48.580Z,15.90
2017-05-25T01:59:23.840Z,16.37
2017-05-25T02:01:59.150Z,11.27
2017-05-25T02:04:34.362Z,18.33
2017-05-25T02:07:09.614Z,11.93
2017-05-25T02:09:45.009Z,19.05
2017-05-25T02:12:20.258Z,13.88
2017-05-25T02:14:55.642Z,13.60
2017-05-25T02:17:31.105Z,12.10
2017-05-25T02:20:06.466Z,17.48
2017-05-25T02:22:41.698Z,10.48
2017-05-25T02:25:18.721Z,18.55
2017-05-25T02:27:55.107Z,15.02
2017-05-25T02:30:30.531Z,13.95
2017-05-25T02:33:06.672Z,15.20
2017-05-25T02:35:42.845Z,18.47
2017-05-25T02:38:19.447Z,15.93
2017-05-25T02:40:55.734Z,17.93
2017-05-25T02:43:32.191Z,11.20
2017-05-25T02:46:08.615Z,20.45
2017-05-25T02:48:45.084Z,17.77
2017-05-25T02:51:21.687Z,12.02
2017-05-25T02:53:58.113Z,17.22
2017-05-25T02:56:34.375Z,18.58
2017-05-25T02:59:11.530Z,12.48
2017-05-25T03:01:47.873Z,15.50
2017-05-25T03:04:24.327Z,17.07
2017-05-25T03:07:00.707Z,11.28
2017-05-25T03:09:36.797Z,11.68
2017-05-25T03:12:13.051Z,12.32
2017-05-25T03:14:49.447Z,15.08
2017-05-25T03:17:25.616Z,17.90
2017-05-25T03:20:02.172Z,15.95
2017-05-25T03:22:38.603Z,12.78
2017-05-25T03:25:15.334Z,17.00
2017-05-25T03:27:50.779Z,13.48
2017-05-25T03:30:26.501Z,17.70
2017-05-25T03:33:01.924Z,12.23
2017-05-25T03:35:38.451Z,17.52
2017-05-25T03:38:14.584Z,16.58
2017-05-25T03:40:50.220Z,14.37
2017-05-25T03:43:25.403Z,14.40
2017-05-25T03:46:03.457Z,15.50
2017-05-25T03:48:38.853Z,14.15
2017-05-25T03:51:14.196Z,16.98
2017-05-25T03:53:49.602Z,11.48
2017-05-25T03:56:24.888Z,12.98
2017-05-25T03:59:00.139Z,13.42
2017-05-25T04:01:35.636Z,11.93
2017-05-25T04:04:10.899Z,16.35
2017-05-25T04:06:46.218Z,10.92
2017-05-25T04:09:21.730Z,7.95
2017-05-25T04:11:56.907Z,10.55
2017-05-25T04:14:32.521Z,9.82
2017-05-25T04:17:07.938Z,8.17
2017-05-25T04:19:43.539Z,16.35
2017-05-25T04:22:18.857Z,10.45
2017-05-25T04:24:54.322Z,9.15
2017-05-25T04:27:35.735Z,9.40
2017-05-25T04:30:20.408Z,9.07
2017-05-25T04:33:04.348Z,12.22
2017-05-25T04:35:50.635Z,11.20
2017-05-25T04:38:34.183Z,9.12
2017-05-25T04:41:19.476Z,7.02
2017-05-25T04:44:03.846Z,6.42
2017-05-25T04:46:45.695Z,12.68
2017-05-25T04:49:29.121Z,8.57
2017-05-25T04:52:09.959Z,11.67
2017-05-25T04:54:50.563Z,7.02
2017-05-25T04:57:31.405Z,6.22
2017-05-25T05:00:12.732Z,25.52
2017-05-25T05:02:57.841Z,4.22
2017-05-25T05:05:39.847Z,6.30
2017-05-25T05:08:21.201Z,8.10
2017-05-25T05:11:03.114Z,7.53
2017-05-25T05:13:44.267Z,3.50
2017-05-25T05:16:25.093Z,6.60
2017-05-25T05:19:05.354Z,8.10
2017-05-25T05:21:46.063Z,10.23
2017-05-25T05:24:26.481Z,6.65
2017-05-25T05:27:07.742Z,4.85
2017-05-25T05:29:47.732Z,9.03
2017-05-25T05:32:23.867Z,5.73
2017-05-25T05:34:59.155Z,4.13
2017-05-25T05:37:34.643Z,5.13
2017-05-25T05:40:09.990Z,7.40
2017-05-25T05:42:45.249Z,8.55
2017-05-25T05:45:20.558Z,11.93
2017-05-25T05:47:55.885Z,10.27
2017-05-25T05:50:31.374Z,3.52
2017-05-25T05:53:06.743Z,5.12
2017-05-25T05:55:42.166Z,7.70
2017-05-25T05:58:17.357Z,7.55
2017-05-25T06:00:52.850Z,4.77
2017-05-25T06:03:34.156Z,3.98
2017-05-25T06:06:16.784Z,8.97
2017-05-25T06:08:57.622Z,4.08
2017-05-25T06:11:38.742Z,6.22
2017-05-25T06:14:22.697Z,5.13
2017-05-25T06:17:04.827Z,3.90
2017-05-25T06:19:45.411Z,16.98
2017-05-25T06:22:27.393Z,3.43
2017-05-25T06:25:08.260Z,7.87
2017-05-25T06:27:43.773Z,5.97
2017-05-25T06:30:18.960Z,4.03
2017-05-25T06:32:54.255Z,11.42
2017-05-25T06:35:29.410Z,5.58
2017-05-25T06:38:04.873Z,5.07
2017-05-25T06:40:40.040Z,5.18
2017-05-25T06:43:15.429Z,2.63
2017-05-25T06:45:50.757Z,4.60
2017-05-25T06:48:26.096Z,4.20
2017-05-25T06:51:01.418Z,3.05
2017-05-25T06:53:36.679Z,3.68
2017-05-25T06:56:12.084Z,5.77
2017-05-25T06:58:47.735Z,7.83
2017-05-25T07:01:22.969Z,6.50
2017-05-25T07:03:58.514Z,4.30
2017-05-25T07:06:33.851Z,4.00
2017-05-25T07:09:09.154Z,4.30
2017-05-25T07:11:44.425Z,3.82
2017-05-25T07:14:19.832Z,5.43
2017-05-25T07:16:55.539Z,7.27
2017-05-25T07:19:30.869Z,7.70
2017-05-25T07:22:06.188Z,4.62
2017-05-25T07:24:41.711Z,3.08
2017-05-25T07:27:16.947Z,2.22
2017-05-25T07:29:52.251Z,3.78
2017-05-25T07:32:27.492Z,4.02
2017-05-25T07:35:03.103Z,5.42
2017-05-25T07:37:38.351Z,5.35
2017-05-25T07:40:13.708Z,2.85
2017-05-25T07:42:49.047Z,5.18
2017-05-25T07:45:24.244Z,6.00
2017-05-25T07:47:59.506Z,3.33
2017-05-25T07:50:35.043Z,7.32
2017-05-25T07:53:10.203Z,8.47
2017-05-25T07:55:45.545Z,3.33
2017-05-25T07:58:20.752Z,10.33
2017-05-25T08:00:56.111Z,4.30
2017-05-25T08:03:31.342Z,4.10
2017-05-25T08:06:06.691Z,7.78
2017-05-25T08:08:42.039Z,1.65
2017-05-25T08:11:17.655Z,3.53
2017-05-25T08:13:52.910Z,5.75
2017-05-25T08:16:28.210Z,4.78
2017-05-25T08:19:03.509Z,4.13
2017-05-25T08:21:39.023Z,3.08
2017-05-25T08:24:14.301Z,4.80
2017-05-25T08:26:49.570Z,3.88
2017-05-25T08:29:24.873Z,5.03
2017-05-25T08:32:00.285Z,3.38
2017-05-25T08:34:35.570Z,5.78
2017-05-25T08:37:10.892Z,4.00
2017-05-25T08:39:46.148Z,3.63
2017-05-25T08:42:21.529Z,4.62
2017-05-25T08:44:56.806Z,3.05
2017-05-25T08:47:32.121Z,4.90
2017-05-25T08:50:07.357Z,5.12
2017-05-25T08:52:42.632Z,5.13
2017-05-25T08:55:18.242Z,4.03
2017-05-25T08:57:53.471Z,4.15
2017-05-25T09:00:29.061Z,1.75
2017-05-25T09:03:04.262Z,5.95
2017-05-25T09:05:39.538Z,2.37
2017-05-25T09:08:14.782Z,2.60
2017-05-25T09:10:50.229Z,4.90
2017-05-25T09:13:25.614Z,2.83
2017-05-25T09:16:00.955Z,4.85
2017-05-25T09:18:36.302Z,2.78
2017-05-25T09:21:11.709Z,5.95
2017-05-25T09:23:46.221Z,2.90
2017-05-25T09:26:21.542Z,4.15
2017-05-25T09:28:56.860Z,4.18
2017-05-25T09:31:32.418Z,1.78
2017-05-25T09:34:07.767Z,3.82
2017-05-25T09:36:43.166Z,2.70
2017-05-25T09:39:18.544Z,2.53
2017-05-25T09:41:53.839Z,3.50
2017-05-25T09:44:29.098Z,3.40
2017-05-25T09:47:04.587Z,3.75
2017-05-25T09:49:40.170Z,5.43
2017-05-25T09:52:15.495Z,5.97
2017-05-25T09:54:50.696Z,2.80
2017-05-25T09:57:26.077Z,4.43
2017-05-25T10:00:01.971Z,3.70
2017-05-25T10:02:37.891Z,3.14
2017-05-25T10:05:13.108Z,5.64
2017-05-25T10:07:48.485Z,4.38
2017-05-25T10:10:23.689Z,3.34
2017-05-25T10:12:59.017Z,7.36
2017-05-25T10:15:34.376Z,3.66
2017-05-25T10:18:10.088Z,3.92
2017-05-25T10:20:45.441Z,4.72
2017-05-25T10:23:20.759Z,12.25
2017-05-25T10:25:55.995Z,3.56
2017-05-25T10:28:31.553Z,3.18
2017-05-25T10:31:06.966Z,3.52
2017-05-25T10:33:42.326Z,3.44
2017-05-25T10:36:17.695Z,4.96
2017-05-25T10:38:52.935Z,4.20
2017-05-25T10:41:28.329Z,3.50
2017-05-25T10:44:05.062Z,2.56
2017-05-25T10:46:40.576Z,3.23
2017-05-25T10:49:16.660Z,6.23
2017-05-25T10:51:52.056Z,4.38
2017-05-25T10:54:27.615Z,4.40
2017-05-25T10:57:02.850Z,4.28
2017-05-25T10:59:38.160Z,3.52
2017-05-25T11:02:13.786Z,5.87
2017-05-25T11:04:49.204Z,5.02
2017-05-25T11:07:24.379Z,6.10
2017-05-25T11:09:59.972Z,3.20
2017-05-25T11:12:35.400Z,6.88
2017-05-25T11:15:10.759Z,2.20
2017-05-25T11:17:46.186Z,1.36
2017-05-25T11:20:21.657Z,3.72
2017-05-25T11:22:57.043Z,6.40
2017-05-25T11:25:32.329Z,4.38
2017-05-25T11:28:07.689Z,4.24
2017-05-25T11:30:42.971Z,5.50
2017-05-25T11:33:18.170Z,4.10
2017-05-25T11:35:53.468Z,3.95
2017-05-25T11:38:28.730Z,8.40
2017-05-25T11:41:04.082Z,5.62
2017-05-25T11:43:39.267Z,2.93
2017-05-25T11:46:15.311Z,5.07
2017-05-25T11:48:50.465Z,7.30
2017-05-25T11:51:25.800Z,5.16
2017-05-25T11:54:01.072Z,5.80
2017-05-25T11:56:36.367Z,6.26
2017-05-25T11:59:11.723Z,8.50
2017-05-25T12:01:47.202Z,6.02
2017-05-25T12:04:22.533Z,5.96
2017-05-25T12:06:58.064Z,5.84
2017-05-25T12:09:33.296Z,5.04
2017-05-25T12:12:08.566Z,5.54
2017-05-25T12:14:43.911Z,7.52
2017-05-25T12:17:19.230Z,5.16
2017-05-25T12:19:54.618Z,4.80
2017-05-25T12:22:29.891Z,3.68
2017-05-25T12:25:05.213Z,5.60
2017-05-25T12:27:41.038Z,4.28
2017-05-25T12:30:16.397Z,4.12
2017-05-25T12:32:51.908Z,4.16
2017-05-25T12:35:27.153Z,2.82
2017-05-25T12:38:02.440Z,4.90
2017-05-25T12:40:37.869Z,3.50
2017-05-25T12:43:13.215Z,4.78
2017-05-25T12:45:48.536Z,5.42
2017-05-25T12:48:24.017Z,3.28
2017-05-25T12:50:59.216Z,7.44
2017-05-25T12:53:34.662Z,3.16
2017-05-25T12:56:09.934Z,3.42
2017-05-25T12:58:45.316Z,4.90
2017-05-25T13:01:20.689Z,6.34
2017-05-25T13:03:55.952Z,4.12
2017-05-25T13:06:31.274Z,4.10
2017-05-25T13:09:09.111Z,4.72
2017-05-25T13:11:44.381Z,4.46
2017-05-25T13:14:19.883Z,4.14
2017-05-25T13:16:55.311Z,8.00
2017-05-25T13:19:30.745Z,5.40
2017-05-25T13:22:06.148Z,6.52
2017-05-25T13:24:41.667Z,4.38
2017-05-25T13:27:17.131Z,3.54
2017-05-25T13:29:52.421Z,3.58
2017-05-25T13:32:27.775Z,3.64
2017-05-25T13:35:02.984Z,3.88
2017-05-25T13:37:40.857Z,5.40
2017-05-25T13:40:16.362Z,2.40
2017-05-25T13:43:05.794Z,3.86
2017-05-25T13:45:58.687Z,4.50
2017-05-25T13:48:41.626Z,4.50
2017-05-25T13:51:17.245Z,8.22
2017-05-25T13:53:52.677Z,9.26
2017-05-25T13:56:27.967Z,6.06
2017-05-25T13:59:03.532Z,3.60
2017-05-25T14:01:38.713Z,3.68
2017-05-25T14:04:14.161Z,4.02
2017-05-25T14:06:49.555Z,4.44
2017-05-25T14:09:25.311Z,5.56
2017-05-25T14:12:00.671Z,2.68
2017-05-25T14:14:35.939Z,4.78
2017-05-25T14:17:11.433Z,4.16
2017-05-25T14:19:47.186Z,4.10
2017-05-25T14:22:22.592Z,3.56
2017-05-25T14:24:57.872Z,2.88
2017-05-25T14:27:33.148Z,3.98
2017-05-25T14:30:12.080Z,7.26
2017-05-25T14:32:47.952Z,5.32
2017-05-25T14:35:23.842Z,6.24
2017-05-25T14:38:00.038Z,4.92
2017-05-25T14:40:35.239Z,3.24
2017-05-25T14:43:10.679Z,4.74
2017-05-25T14:45:46.051Z,4.64
2017-05-25T14:48:21.502Z,7.32
2017-05-25T14:50:56.868Z,4.14
2017-05-25T14:53:32.115Z,4.02
2017-05-25T14:56:07.550Z,4.30
2017-05-25T14:58:42.886Z,3.12
2017-05-25T15:01:18.180Z,4.72
2017-05-25T15:03:53.570Z,2.52
2017-05-25T15:06:28.859Z,3.28
2017-05-25T15:09:04.163Z,4.14
2017-05-25T15:11:39.701Z,3.68
2017-05-25T15:14:15.125Z,7.20
2017-05-25T15:16:50.418Z,4.36
2017-05-25T15:19:25.996Z,4.42
2017-05-25T15:22:01.485Z,7.18
2017-05-25T15:24:42.793Z,8.02
2017-05-25T15:27:18.556Z,3.56
2017-05-25T15:29:53.972Z,3.90
2017-05-25T15:32:29.378Z,3.76
2017-05-25T15:35:07.474Z,3.38
2017-05-25T15:40:24.969Z,3.60
2017-05-25T15:43:00.356Z,3.18
2017-05-25T15:45:36.796Z,5.82
2017-05-25T15:48:12.808Z,3.32
2017-05-25T15:50:48.281Z,3.44
2017-05-25T15:53:23.642Z,3.50
2017-05-25T15:55:59.269Z,6.46
2017-05-25T15:58:34.624Z,4.58
2017-05-25T16:01:09.962Z,4.04
2017-05-25T16:03:45.241Z,3.34
2017-05-25T16:06:20.536Z,5.04
2017-05-25T16:08:55.993Z,3.38
2017-05-25T16:11:31.073Z,3.34
2017-05-25T16:14:06.587Z,5.02
2017-05-25T16:16:42.142Z,3.10
2017-05-25T16:19:17.340Z,4.04
2017-05-25T16:21:52.642Z,3.54
2017-05-25T16:24:27.997Z,3.78
2017-05-25T16:27:03.531Z,4.04
2017-05-25T16:29:38.861Z,3.60
2017-05-25T16:32:14.289Z,1.86
2017-05-25T16:34:49.824Z,5.68
2017-05-25T16:37:24.996Z,3.14
2017-05-25T16:40:00.314Z,7.60
2017-05-25T16:42:35.729Z,7.27
2017-05-25T16:45:10.977Z,3.36
2017-05-25T16:47:48.044Z,5.00
2017-05-25T16:50:23.279Z,4.58
2017-05-25T16:52:58.538Z,4.48
2017-05-25T16:55:33.713Z,5.16
2017-05-25T16:58:09.415Z,2.62
2017-05-25T17:00:45.297Z,3.42
2017-05-25T17:03:20.611Z,4.54
2017-05-25T17:05:55.858Z,5.38
2017-05-25T17:08:31.176Z,3.73
2017-05-25T17:11:06.394Z,5.68
2017-05-25T17:13:41.531Z,4.73
2017-05-25T17:16:17.051Z,4.28
2017-05-25T17:18:52.318Z,4.07
2017-05-25T17:21:27.537Z,3.66
2017-05-25T17:24:02.910Z,3.56
2017-05-25T17:26:38.516Z,7.02
2017-05-25T17:29:13.889Z,2.82
2017-05-25T17:31:50.157Z,3.30
2017-05-25T17:34:25.379Z,2.95
2017-05-25T17:37:00.906Z,3.35
2017-05-25T17:39:36.225Z,3.47
2017-05-25T17:42:11.716Z,4.92
2017-05-25T17:44:47.143Z,3.27
2017-05-25T17:47:22.476Z,4.60
2017-05-25T17:49:58.144Z,2.52
2017-05-25T17:52:33.407Z,4.68
2017-05-25T17:55:08.691Z,6.22
2017-05-25T17:57:49.838Z,6.52
2017-05-25T18:00:32.874Z,3.22
2017-05-25T18:03:11.636Z,3.05
2017-05-25T18:05:47.261Z,2.68
2017-05-25T18:08:25.762Z,3.83
2017-05-25T18:11:01.981Z,4.05
2017-05-25T18:13:37.246Z,5.67
2017-05-25T18:16:12.766Z,3.45
2017-05-25T18:18:48.288Z,2.18
2017-05-25T18:21:24.318Z,3.07
2017-05-25T18:23:59.557Z,3.15
2017-05-25T18:26:34.869Z,3.67
2017-05-25T18:29:10.175Z,2.58
2017-05-25T18:31:45.782Z,2.05
2017-05-25T18:34:20.982Z,2.57
2017-05-25T18:36:56.386Z,2.52
2017-05-25T18:39:32.396Z,6.02
2017-05-25T18:42:09.183Z,2.32
2017-05-25T18:44:44.276Z,6.77
2017-05-25T18:47:19.922Z,7.02
2017-05-25T18:49:56.306Z,3.33
2017-05-25T18:52:33.063Z,4.05
2017-05-25T18:55:12.834Z,3.75
2017-05-25T18:57:54.563Z,5.82
2017-05-25T19:00:35.187Z,4.50
2017-05-25T19:03:16.459Z,2.67
2017-05-25T19:05:57.651Z,3.03
2017-05-25T19:08:40.065Z,3.42
2017-05-25T19:11:16.105Z,4.18
2017-05-25T19:13:56.303Z,5.12
2017-05-25T19:16:32.769Z,7.53
2017-05-25T19:19:08.323Z,4.37
2017-05-25T19:21:43.636Z,3.58
2017-05-25T19:24:19.124Z,4.93
2017-05-25T19:26:54.518Z,3.67
2017-05-25T19:29:29.702Z,3.52
2017-05-25T19:32:09.488Z,4.80
2017-05-25T19:34:45.156Z,2.77
2017-05-25T19:37:20.498Z,3.40
2017-05-25T19:39:55.803Z,4.95
2017-05-25T19:42:31.036Z,5.77
2017-05-25T19:45:06.322Z,4.67
2017-05-25T19:47:41.567Z,4.03
2017-05-25T19:50:16.848Z,6.48
2017-05-25T19:52:52.219Z,4.88
2017-05-25T19:55:27.590Z,4.48
2017-05-25T19:58:02.970Z,4.68
2017-05-25T20:00:38.499Z,3.20
2017-05-25T20:03:13.919Z,3.57
2017-05-25T20:05:49.488Z,6.42
2017-05-25T20:08:24.807Z,3.83
2017-05-25T20:11:00.463Z,11.85
2017-05-25T20:13:35.639Z,5.03
2017-05-25T20:16:11.242Z,3.73
2017-05-25T20:18:46.411Z,4.17
2017-05-25T20:21:21.903Z,3.52
2017-05-25T20:23:57.225Z,3.97
2017-05-25T20:26:32.657Z,4.13
2017-05-25T20:29:08.062Z,8.88
2017-05-25T20:31:43.236Z,5.13
2017-05-25T20:34:18.491Z,5.88
2017-05-25T20:36:53.863Z,5.67
2017-05-25T20:39:29.190Z,6.32
2017-05-25T20:42:04.771Z,6.97
2017-05-25T20:44:39.985Z,8.20
2017-05-25T20:47:15.638Z,7.48
2017-05-25T20:49:50.834Z,8.08
2017-05-25T20:52:26.211Z,10.78
2017-05-25T20:55:01.491Z,11.45
2017-05-25T20:57:37.107Z,12.97
2017-05-25T21:00:12.533Z,9.75
2017-05-25T21:02:47.861Z,11.62
2017-05-25T21:05:23.097Z,11.02
2017-05-25T21:08:00.089Z,11.07
2017-05-25T21:10:35.319Z,12.57
2017-05-25T21:13:10.627Z,13.13
2017-05-25T21:15:45.846Z,11.50
2017-05-25T21:18:21.118Z,17.22
2017-05-25T21:20:56.436Z,20.17
2017-05-25T21:23:31.747Z,9.62
2017-05-25T21:26:07.051Z,14.67
2017-05-25T21:28:42.657Z,19.70
2017-05-25T21:31:18.244Z,16.67
2017-05-25T21:33:53.712Z,16.50
2017-05-25T21:36:30.789Z,18.12
2017-05-25T21:39:07.045Z,14.93
2017-05-25T21:41:42.475Z,17.20
2017-05-25T21:44:17.823Z,17.33
2017-05-25T21:46:53.184Z,19.22
2017-05-25T21:49:28.729Z,19.18
2017-05-25T21:52:04.015Z,23.52
2017-05-25T21:54:39.929Z,20.27
2017-05-25T21:57:15.211Z,24.35
2017-05-25T21:59:50.550Z,18.00
2017-05-25T22:02:25.769Z,18.37
2017-05-25T22:05:04.996Z,19.25
2017-05-25T22:07:43.936Z,23.92
2017-05-25T22:10:19.343Z,21.23
2017-05-25T22:12:54.675Z,23.37
2017-05-25T22:15:29.997Z,13.28
2017-05-25T22:18:05.339Z,21.63
2017-05-25T22:20:40.746Z,18.50
2017-05-25T22:23:16.184Z,21.05
2017-05-25T22:25:51.794Z,22.63
2017-05-25T22:28:26.985Z,21.50
2017-05-25T22:31:02.595Z,21.20
2017-05-25T22:33:37.770Z,21.47
2017-05-25T22:36:13.272Z,17.50
2017-05-25T22:38:48.522Z,22.88
2017-05-25T22:41:23.837Z,25.38
2017-05-25T22:43:59.050Z,21.68
2017-05-25T22:46:34.300Z,24.38
2017-05-25T22:49:09.754Z,23.68
2017-05-25T22:51:45.009Z,23.10
2017-05-25T22:54:20.275Z,27.15
2017-05-25T22:56:55.471Z,27.38
2017-05-25T22:59:30.685Z,27.88
2017-05-25T23:02:05.898Z,26.40
2017-05-25T23:04:41.174Z,30.97
2017-05-25T23:07:16.426Z,32.22
2017-05-25T23:09:51.598Z,27.90
2017-05-25T23:12:26.888Z,28.10
2017-05-25T23:15:02.176Z,26.87
2017-05-25T23:17:37.611Z,22.93
2017-05-25T23:20:12.955Z,28.33
2017-05-25T23:22:48.475Z,30.67
2017-05-25T23:25:28.201Z,31.68
2017-05-25T23:28:08.130Z,29.42
2017-05-25T23:30:47.502Z,11.12
2017-05-25T23:33:27.156Z,26.68
2017-05-25T23:36:03.198Z,31.00
2017-05-25T23:38:38.697Z,31.05
2017-05-25T23:41:20.194Z,24.93
2017-05-25T23:43:57.693Z,28.32
2017-05-25T23:46:33.015Z,22.92
2017-05-25T23:49:08.278Z,25.07
2017-05-25T23:51:43.646Z,32.53
2017-05-25T23:54:18.956Z,31.53
2017-05-25T23:56:54.181Z,29.60
2017-05-25T23:59:29.463Z,30.80
